sensor_id;sensor_type;location;lat;lon;timestamp;temperature;humidity
60033;DHT22;45905;50.570;10.428;2022-10-18T00:00:55;14.40;99.90
60033;DHT22;45905;50.570;10.428;2022-10-18T00:03:22;14.40;99.90
60033;DHT22;45905;50.570;10.428;2022-10-18T00:05:50;14.40;99.90
60033;DHT22;45905;50.570;10.428;2022-10-18T00:08:18;14.40;99.90
60033;DHT22;45905;50.570;10.428;2022-10-18T00:10:47;14.40;99.90
60033;DHT22;45905;50.570;10.428;2022-10-18T00:13:15;14.40;99.90
60033;DHT22;45905;50.570;10.428;2022-10-18T00:15:54;14.40;99.90
60033;DHT22;45905;50.570;10.428;2022-10-18T00:18:25;14.40;99.90
60033;DHT22;45905;50.570;10.428;2022-10-18T00:21:02;14.30;99.90
60033;DHT22;45905;50.570;10.428;2022-10-18T00:23:33;14.40;99.90
60033;DHT22;45905;50.570;10.428;2022-10-18T00:26:04;14.40;99.90
60033;DHT22;45905;50.570;10.428;2022-10-18T00:28:37;14.40;99.90
60033;DHT22;45905;50.570;10.428;2022-10-18T00:31:17;14.40;99.90
60033;DHT22;45905;50.570;10.428;2022-10-18T00:34:00;14.40;99.90
60033;DHT22;45905;50.570;10.428;2022-10-18T00:36:30;14.40;99.90
60033;DHT22;45905;50.570;10.428;2022-10-18T00:39:01;14.40;99.90
60033;DHT22;45905;50.570;10.428;2022-10-18T00:41:32;14.40;99.90
60033;DHT22;45905;50.570;10.428;2022-10-18T00:44:03;14.40;99.90
60033;DHT22;45905;50.570;10.428;2022-10-18T00:47:05;14.40;99.90
60033;DHT22;45905;50.570;10.428;2022-10-18T00:49:39;14.30;99.90
60033;DHT22;45905;50.570;10.428;2022-10-18T00:52:12;14.30;99.90
60033;DHT22;45905;50.570;10.428;2022-10-18T00:54:45;14.30;99.90
60033;DHT22;45905;50.570;10.428;2022-10-18T00:57:14;14.30;99.90
60033;DHT22;45905;50.570;10.428;2022-10-18T00:59:42;14.30;99.90
60033;DHT22;45905;50.570;10.428;2022-10-18T01:02:10;14.30;99.90
60033;DHT22;45905;50.570;10.428;2022-10-18T01:04:37;14.30;99.90
60033;DHT22;45905;50.570;10.428;2022-10-18T01:15:41;14.30;99.90
60033;DHT22;45905;50.570;10.428;2022-10-18T01:21:34;14.20;99.90
60033;DHT22;45905;50.570;10.428;2022-10-18T01:24:17;14.30;99.90
60033;DHT22;45905;50.570;10.428;2022-10-18T01:30:24;14.30;99.90
60033;DHT22;45905;50.570;10.428;2022-10-18T01:36:20;14.30;99.90
60033;DHT22;45905;50.570;10.428;2022-10-18T01:38:54;14.30;99.90
60033;DHT22;45905;50.570;10.428;2022-10-18T01:41:24;14.30;99.90
60033;DHT22;45905;50.570;10.428;2022-10-18T01:43:57;14.20;99.90
60033;DHT22;45905;50.570;10.428;2022-10-18T01:46:27;14.20;99.90
60033;DHT22;45905;50.570;10.428;2022-10-18T01:48:55;14.20;99.90
60033;DHT22;45905;50.570;10.428;2022-10-18T01:51:25;14.20;99.90
60033;DHT22;45905;50.570;10.428;2022-10-18T01:53:54;14.20;99.90
60033;DHT22;45905;50.570;10.428;2022-10-18T01:56:36;14.20;99.90
60033;DHT22;45905;50.570;10.428;2022-10-18T02:04:53;14.20;99.90
60033;DHT22;45905;50.570;10.428;2022-10-18T02:07:43;14.10;99.90
60033;DHT22;45905;50.570;10.428;2022-10-18T02:10:40;14.00;99.90
60033;DHT22;45905;50.570;10.428;2022-10-18T02:13:13;13.90;99.90
60033;DHT22;45905;50.570;10.428;2022-10-18T02:15:47;13.90;99.90
60033;DHT22;45905;50.570;10.428;2022-10-18T02:18:24;13.90;99.90
60033;DHT22;45905;50.570;10.428;2022-10-18T02:20:57;13.90;99.90
60033;DHT22;45905;50.570;10.428;2022-10-18T02:23:27;13.90;99.90
60033;DHT22;45905;50.570;10.428;2022-10-18T02:25:55;13.90;99.90
60033;DHT22;45905;50.570;10.428;2022-10-18T02:28:23;13.90;99.90
60033;DHT22;45905;50.570;10.428;2022-10-18T02:33:52;13.90;99.90
60033;DHT22;45905;50.570;10.428;2022-10-18T02:36:52;13.80;99.90
60033;DHT22;45905;50.570;10.428;2022-10-18T02:39:33;13.80;99.90
60033;DHT22;45905;50.570;10.428;2022-10-18T02:42:04;13.80;99.90
60033;DHT22;45905;50.570;10.428;2022-10-18T02:44:37;13.80;99.90
60033;DHT22;45905;50.570;10.428;2022-10-18T02:47:05;13.80;99.90
60033;DHT22;45905;50.570;10.428;2022-10-18T02:49:34;13.80;99.90
60033;DHT22;45905;50.570;10.428;2022-10-18T02:52:01;13.80;99.90
60033;DHT22;45905;50.570;10.428;2022-10-18T02:54:28;13.80;99.90
60033;DHT22;45905;50.570;10.428;2022-10-18T02:56:55;13.80;99.90
60033;DHT22;45905;50.570;10.428;2022-10-18T02:59:22;13.90;99.90
60033;DHT22;45905;50.570;10.428;2022-10-18T03:01:49;13.90;99.90
60033;DHT22;45905;50.570;10.428;2022-10-18T03:04:16;13.90;99.90
60033;DHT22;45905;50.570;10.428;2022-10-18T03:06:43;13.90;99.90
60033;DHT22;45905;50.570;10.428;2022-10-18T03:09:10;13.80;99.90
60033;DHT22;45905;50.570;10.428;2022-10-18T03:11:37;13.80;99.90
60033;DHT22;45905;50.570;10.428;2022-10-18T03:14:04;13.80;99.90
60033;DHT22;45905;50.570;10.428;2022-10-18T03:16:31;13.90;99.90
60033;DHT22;45905;50.570;10.428;2022-10-18T03:18:59;13.80;99.90
60033;DHT22;45905;50.570;10.428;2022-10-18T03:21:27;13.90;99.90
60033;DHT22;45905;50.570;10.428;2022-10-18T03:23:54;13.90;99.90
60033;DHT22;45905;50.570;10.428;2022-10-18T03:26:21;13.90;99.90
60033;DHT22;45905;50.570;10.428;2022-10-18T03:28:48;13.90;99.90
60033;DHT22;45905;50.570;10.428;2022-10-18T03:31:15;13.90;99.90
60033;DHT22;45905;50.570;10.428;2022-10-18T03:33:43;13.90;99.90
60033;DHT22;45905;50.570;10.428;2022-10-18T03:36:10;13.90;99.90
60033;DHT22;45905;50.570;10.428;2022-10-18T03:38:37;13.90;99.90
60033;DHT22;45905;50.570;10.428;2022-10-18T03:41:05;13.90;99.90
60033;DHT22;45905;50.570;10.428;2022-10-18T03:43:32;13.90;99.90
60033;DHT22;45905;50.570;10.428;2022-10-18T03:45:59;13.80;99.90
60033;DHT22;45905;50.570;10.428;2022-10-18T03:48:27;13.80;99.90
60033;DHT22;45905;50.570;10.428;2022-10-18T03:50:54;13.80;99.90
60033;DHT22;45905;50.570;10.428;2022-10-18T03:53:21;13.80;99.90
60033;DHT22;45905;50.570;10.428;2022-10-18T03:55:53;13.80;99.90
60033;DHT22;45905;50.570;10.428;2022-10-18T03:58:21;13.80;99.90
60033;DHT22;45905;50.570;10.428;2022-10-18T04:00:53;13.80;99.90
60033;DHT22;45905;50.570;10.428;2022-10-18T04:03:21;13.80;99.90
60033;DHT22;45905;50.570;10.428;2022-10-18T04:05:49;13.90;99.90
60033;DHT22;45905;50.570;10.428;2022-10-18T04:08:17;13.90;99.90
60033;DHT22;45905;50.570;10.428;2022-10-18T04:10:45;13.90;99.90
60033;DHT22;45905;50.570;10.428;2022-10-18T04:13:12;13.90;99.90
60033;DHT22;45905;50.570;10.428;2022-10-18T04:15:40;13.80;99.90
60033;DHT22;45905;50.570;10.428;2022-10-18T04:18:07;13.80;99.90
60033;DHT22;45905;50.570;10.428;2022-10-18T04:20:34;13.80;99.90
60033;DHT22;45905;50.570;10.428;2022-10-18T04:23:01;13.80;99.90
60033;DHT22;45905;50.570;10.428;2022-10-18T04:25:28;13.80;99.90
60033;DHT22;45905;50.570;10.428;2022-10-18T04:27:55;13.70;99.90
60033;DHT22;45905;50.570;10.428;2022-10-18T04:30:22;13.80;99.90
60033;DHT22;45905;50.570;10.428;2022-10-18T04:32:49;13.80;99.90
60033;DHT22;45905;50.570;10.428;2022-10-18T04:35:16;13.80;99.90
60033;DHT22;45905;50.570;10.428;2022-10-18T04:37:45;13.80;99.90
60033;DHT22;45905;50.570;10.428;2022-10-18T04:40:12;13.80;99.90
60033;DHT22;45905;50.570;10.428;2022-10-18T04:42:39;13.80;99.90
60033;DHT22;45905;50.570;10.428;2022-10-18T04:45:07;13.80;99.90
60033;DHT22;45905;50.570;10.428;2022-10-18T04:47:34;13.80;99.90
60033;DHT22;45905;50.570;10.428;2022-10-18T04:50:02;13.80;99.90
60033;DHT22;45905;50.570;10.428;2022-10-18T04:52:30;13.90;99.90
60033;DHT22;45905;50.570;10.428;2022-10-18T04:54:57;13.80;99.90
60033;DHT22;45905;50.570;10.428;2022-10-18T04:57:24;13.80;99.90
60033;DHT22;45905;50.570;10.428;2022-10-18T04:59:51;13.80;99.90
60033;DHT22;45905;50.570;10.428;2022-10-18T05:02:18;13.80;99.90
60033;DHT22;45905;50.570;10.428;2022-10-18T05:04:45;13.80;99.90
60033;DHT22;45905;50.570;10.428;2022-10-18T05:07:12;13.70;99.90
60033;DHT22;45905;50.570;10.428;2022-10-18T05:09:39;13.70;99.90
60033;DHT22;45905;50.570;10.428;2022-10-18T05:12:06;13.70;99.90
60033;DHT22;45905;50.570;10.428;2022-10-18T05:14:34;13.70;99.90
60033;DHT22;45905;50.570;10.428;2022-10-18T05:17:01;13.80;99.90
60033;DHT22;45905;50.570;10.428;2022-10-18T05:19:28;13.80;99.90
60033;DHT22;45905;50.570;10.428;2022-10-18T05:21:55;13.80;99.90
60033;DHT22;45905;50.570;10.428;2022-10-18T05:24:22;13.80;99.90
60033;DHT22;45905;50.570;10.428;2022-10-18T05:26:53;13.80;99.90
60033;DHT22;45905;50.570;10.428;2022-10-18T05:29:20;13.80;99.90
60033;DHT22;45905;50.570;10.428;2022-10-18T05:31:48;13.90;99.90
60033;DHT22;45905;50.570;10.428;2022-10-18T05:34:16;13.90;99.90
60033;DHT22;45905;50.570;10.428;2022-10-18T05:36:43;13.90;99.90
60033;DHT22;45905;50.570;10.428;2022-10-18T05:39:10;13.90;99.90
60033;DHT22;45905;50.570;10.428;2022-10-18T05:41:37;13.90;99.90
60033;DHT22;45905;50.570;10.428;2022-10-18T05:44:05;13.90;99.90
60033;DHT22;45905;50.570;10.428;2022-10-18T05:46:32;13.90;99.90
60033;DHT22;45905;50.570;10.428;2022-10-18T05:48:59;13.90;99.90
60033;DHT22;45905;50.570;10.428;2022-10-18T05:51:26;13.90;99.90
60033;DHT22;45905;50.570;10.428;2022-10-18T05:53:54;13.90;99.90
60033;DHT22;45905;50.570;10.428;2022-10-18T05:56:21;13.90;99.90
60033;DHT22;45905;50.570;10.428;2022-10-18T05:58:51;13.90;99.90
60033;DHT22;45905;50.570;10.428;2022-10-18T06:01:19;13.90;99.90
60033;DHT22;45905;50.570;10.428;2022-10-18T06:03:46;13.90;99.90
60033;DHT22;45905;50.570;10.428;2022-10-18T06:06:14;13.90;99.90
60033;DHT22;45905;50.570;10.428;2022-10-18T06:08:42;13.90;99.90
60033;DHT22;45905;50.570;10.428;2022-10-18T06:11:12;13.90;99.90
60033;DHT22;45905;50.570;10.428;2022-10-18T06:13:46;13.90;99.90
60033;DHT22;45905;50.570;10.428;2022-10-18T06:16:16;13.90;99.90
60033;DHT22;45905;50.570;10.428;2022-10-18T06:18:53;13.90;99.90
60033;DHT22;45905;50.570;10.428;2022-10-18T06:21:23;13.90;99.90
60033;DHT22;45905;50.570;10.428;2022-10-18T06:23:53;13.90;99.90
60033;DHT22;45905;50.570;10.428;2022-10-18T06:26:21;13.80;99.90
60033;DHT22;45905;50.570;10.428;2022-10-18T06:28:49;13.80;99.90
60033;DHT22;45905;50.570;10.428;2022-10-18T06:31:17;13.90;99.90
60033;DHT22;45905;50.570;10.428;2022-10-18T06:33:47;13.90;99.90
60033;DHT22;45905;50.570;10.428;2022-10-18T06:36:19;13.90;99.90
60033;DHT22;45905;50.570;10.428;2022-10-18T06:38:50;13.90;99.90
60033;DHT22;45905;50.570;10.428;2022-10-18T06:41:17;13.90;99.90
60033;DHT22;45905;50.570;10.428;2022-10-18T06:43:49;13.90;99.90
60033;DHT22;45905;50.570;10.428;2022-10-18T06:46:16;13.90;99.90
60033;DHT22;45905;50.570;10.428;2022-10-18T06:48:44;13.90;99.90
60033;DHT22;45905;50.570;10.428;2022-10-18T06:51:11;14.00;99.90
60033;DHT22;45905;50.570;10.428;2022-10-18T06:53:39;14.00;99.90
60033;DHT22;45905;50.570;10.428;2022-10-18T06:56:19;14.00;99.90
60033;DHT22;45905;50.570;10.428;2022-10-18T06:58:46;14.10;99.90
60033;DHT22;45905;50.570;10.428;2022-10-18T07:01:15;14.10;99.90
60033;DHT22;45905;50.570;10.428;2022-10-18T07:03:44;14.10;99.90
60033;DHT22;45905;50.570;10.428;2022-10-18T07:06:14;14.10;99.90
60033;DHT22;45905;50.570;10.428;2022-10-18T07:08:43;14.10;99.90
60033;DHT22;45905;50.570;10.428;2022-10-18T07:11:16;14.10;99.90
60033;DHT22;45905;50.570;10.428;2022-10-18T07:13:50;14.20;99.90
60033;DHT22;45905;50.570;10.428;2022-10-18T07:16:20;14.20;99.90
60033;DHT22;45905;50.570;10.428;2022-10-18T07:18:49;14.20;99.90
60033;DHT22;45905;50.570;10.428;2022-10-18T07:21:20;14.30;99.90
60033;DHT22;45905;50.570;10.428;2022-10-18T07:23:48;14.30;99.90
60033;DHT22;45905;50.570;10.428;2022-10-18T07:26:25;14.30;99.90
60033;DHT22;45905;50.570;10.428;2022-10-18T07:29:06;14.30;99.90
60033;DHT22;45905;50.570;10.428;2022-10-18T07:31:36;14.40;99.90
60033;DHT22;45905;50.570;10.428;2022-10-18T07:34:09;14.40;99.90
60033;DHT22;45905;50.570;10.428;2022-10-18T07:36:38;14.50;99.90
60033;DHT22;45905;50.570;10.428;2022-10-18T07:39:06;14.50;99.90
60033;DHT22;45905;50.570;10.428;2022-10-18T07:41:34;14.50;99.90
60033;DHT22;45905;50.570;10.428;2022-10-18T07:44:02;14.60;99.90
60033;DHT22;45905;50.570;10.428;2022-10-18T07:46:30;14.60;99.90
60033;DHT22;45905;50.570;10.428;2022-10-18T07:48:57;14.70;99.90
60033;DHT22;45905;50.570;10.428;2022-10-18T07:51:25;14.70;99.90
60033;DHT22;45905;50.570;10.428;2022-10-18T07:53:53;14.70;99.90
60033;DHT22;45905;50.570;10.428;2022-10-18T07:56:21;14.80;99.90
60033;DHT22;45905;50.570;10.428;2022-10-18T07:58:50;14.80;99.90
60033;DHT22;45905;50.570;10.428;2022-10-18T08:01:20;14.90;99.90
60033;DHT22;45905;50.570;10.428;2022-10-18T08:03:49;15.00;99.90
60033;DHT22;45905;50.570;10.428;2022-10-18T08:06:18;14.90;99.90
60033;DHT22;45905;50.570;10.428;2022-10-18T08:08:47;14.90;99.90
60033;DHT22;45905;50.570;10.428;2022-10-18T08:11:17;14.90;99.90
60033;DHT22;45905;50.570;10.428;2022-10-18T08:13:46;15.00;99.90
60033;DHT22;45905;50.570;10.428;2022-10-18T08:16:19;15.00;99.90
60033;DHT22;45905;50.570;10.428;2022-10-18T08:18:50;15.00;99.90
60033;DHT22;45905;50.570;10.428;2022-10-18T08:21:19;15.00;99.90
60033;DHT22;45905;50.570;10.428;2022-10-18T08:23:47;15.00;99.90
60033;DHT22;45905;50.570;10.428;2022-10-18T08:26:17;15.00;99.90
60033;DHT22;45905;50.570;10.428;2022-10-18T08:28:47;15.10;99.90
60033;DHT22;45905;50.570;10.428;2022-10-18T08:31:35;15.10;99.90
60033;DHT22;45905;50.570;10.428;2022-10-18T08:34:02;15.10;99.90
60033;DHT22;45905;50.570;10.428;2022-10-18T08:36:29;15.10;99.90
60033;DHT22;45905;50.570;10.428;2022-10-18T08:38:56;15.10;99.90
60033;DHT22;45905;50.570;10.428;2022-10-18T08:44:25;15.10;99.90
60033;DHT22;45905;50.570;10.428;2022-10-18T08:46:58;15.10;99.90
60033;DHT22;45905;50.570;10.428;2022-10-18T08:49:36;15.10;99.90
60033;DHT22;45905;50.570;10.428;2022-10-18T08:52:41;15.10;99.90
60033;DHT22;45905;50.570;10.428;2022-10-18T08:57:49;15.20;99.90
60033;DHT22;45905;50.570;10.428;2022-10-18T09:00:22;15.20;99.90
60033;DHT22;45905;50.570;10.428;2022-10-18T09:03:06;15.20;99.90
60033;DHT22;45905;50.570;10.428;2022-10-18T09:09:27;15.20;99.90
60033;DHT22;45905;50.570;10.428;2022-10-18T09:21:23;15.40;99.90
60033;DHT22;45905;50.570;10.428;2022-10-18T09:24:10;15.30;99.90
60033;DHT22;45905;50.570;10.428;2022-10-18T09:26:48;15.40;99.90
60033;DHT22;45905;50.570;10.428;2022-10-18T09:35:26;15.40;99.90
60033;DHT22;45905;50.570;10.428;2022-10-18T09:38:03;15.40;99.90
60033;DHT22;45905;50.570;10.428;2022-10-18T09:40:42;15.40;99.90
60033;DHT22;45905;50.570;10.428;2022-10-18T09:43:43;15.50;99.90
60033;DHT22;45905;50.570;10.428;2022-10-18T09:46:18;15.50;99.90
60033;DHT22;45905;50.570;10.428;2022-10-18T09:51:35;15.50;99.90
60033;DHT22;45905;50.570;10.428;2022-10-18T09:56:51;15.60;99.90
60033;DHT22;45905;50.570;10.428;2022-10-18T09:59:43;15.60;99.90
60033;DHT22;45905;50.570;10.428;2022-10-18T10:02:15;15.70;99.90
60033;DHT22;45905;50.570;10.428;2022-10-18T10:04:43;15.70;99.90
60033;DHT22;45905;50.570;10.428;2022-10-18T10:07:16;15.70;99.90
60033;DHT22;45905;50.570;10.428;2022-10-18T10:10:06;15.80;99.90
60033;DHT22;45905;50.570;10.428;2022-10-18T10:12:47;15.80;99.90
60033;DHT22;45905;50.570;10.428;2022-10-18T10:15:51;15.80;99.90
60033;DHT22;45905;50.570;10.428;2022-10-18T10:18:22;15.90;99.90
60033;DHT22;45905;50.570;10.428;2022-10-18T10:20:58;15.90;99.90
60033;DHT22;45905;50.570;10.428;2022-10-18T10:26:32;16.00;99.90
60033;DHT22;45905;50.570;10.428;2022-10-18T10:29:00;16.00;99.90
60033;DHT22;45905;50.570;10.428;2022-10-18T10:31:31;16.10;99.90
60033;DHT22;45905;50.570;10.428;2022-10-18T10:36:48;16.20;99.90
60033;DHT22;45905;50.570;10.428;2022-10-18T10:39:17;16.20;99.90
60033;DHT22;45905;50.570;10.428;2022-10-18T10:41:54;16.30;99.90
60033;DHT22;45905;50.570;10.428;2022-10-18T10:44:27;16.30;99.90
60033;DHT22;45905;50.570;10.428;2022-10-18T10:46:57;16.40;99.90
60033;DHT22;45905;50.570;10.428;2022-10-18T10:52:19;16.50;99.90
60033;DHT22;45905;50.570;10.428;2022-10-18T10:54:55;16.60;99.90
60033;DHT22;45905;50.570;10.428;2022-10-18T10:57:48;16.50;99.90
60033;DHT22;45905;50.570;10.428;2022-10-18T11:00:37;16.60;99.90
60033;DHT22;45905;50.570;10.428;2022-10-18T11:03:13;16.70;99.90
60033;DHT22;45905;50.570;10.428;2022-10-18T11:05:55;16.70;99.90
60033;DHT22;45905;50.570;10.428;2022-10-18T11:08:34;16.70;99.90
60033;DHT22;45905;50.570;10.428;2022-10-18T11:11:24;16.80;99.90
60033;DHT22;45905;50.570;10.428;2022-10-18T11:16:57;16.80;99.90
60033;DHT22;45905;50.570;10.428;2022-10-18T11:22:37;16.80;99.90
60033;DHT22;45905;50.570;10.428;2022-10-18T11:25:15;16.80;99.90
60033;DHT22;45905;50.570;10.428;2022-10-18T11:28:17;16.90;99.90
60033;DHT22;45905;50.570;10.428;2022-10-18T11:33:58;16.90;99.90
60033;DHT22;45905;50.570;10.428;2022-10-18T11:52:51;16.70;99.90
60033;DHT22;45905;50.570;10.428;2022-10-18T11:59:08;16.70;99.90
60033;DHT22;45905;50.570;10.428;2022-10-18T12:05:02;16.60;99.90
60033;DHT22;45905;50.570;10.428;2022-10-18T12:08:11;16.60;99.90
60033;DHT22;45905;50.570;10.428;2022-10-18T12:10:43;16.60;99.90
60033;DHT22;45905;50.570;10.428;2022-10-18T12:13:39;16.60;99.90
60033;DHT22;45905;50.570;10.428;2022-10-18T12:16:08;16.70;99.90
60033;DHT22;45905;50.570;10.428;2022-10-18T12:19:03;16.70;99.90
60033;DHT22;45905;50.570;10.428;2022-10-18T12:21:33;16.80;99.90
60033;DHT22;45905;50.570;10.428;2022-10-18T12:24:13;16.80;99.90
60033;DHT22;45905;50.570;10.428;2022-10-18T12:26:56;16.90;99.90
60033;DHT22;45905;50.570;10.428;2022-10-18T12:32:28;16.90;99.90
60033;DHT22;45905;50.570;10.428;2022-10-18T12:35:05;16.90;99.90
60033;DHT22;45905;50.570;10.428;2022-10-18T12:37:50;16.90;99.90
60033;DHT22;45905;50.570;10.428;2022-10-18T12:40:47;17.00;99.90
60033;DHT22;45905;50.570;10.428;2022-10-18T12:43:24;17.00;99.90
60033;DHT22;45905;50.570;10.428;2022-10-18T12:45:56;17.00;99.90
60033;DHT22;45905;50.570;10.428;2022-10-18T12:48:36;17.00;99.90
60033;DHT22;45905;50.570;10.428;2022-10-18T12:51:14;17.10;99.90
60033;DHT22;45905;50.570;10.428;2022-10-18T12:53:45;17.10;99.90
60033;DHT22;45905;50.570;10.428;2022-10-18T13:12:51;17.30;99.90
60033;DHT22;45905;50.570;10.428;2022-10-18T13:15:58;17.40;99.90
60033;DHT22;45905;50.570;10.428;2022-10-18T13:24:43;17.30;99.90
60033;DHT22;45905;50.570;10.428;2022-10-18T13:27:30;17.30;99.90
60033;DHT22;45905;50.570;10.428;2022-10-18T13:33:20;17.40;99.90
60033;DHT22;45905;50.570;10.428;2022-10-18T13:35:55;17.50;99.90
60033;DHT22;45905;50.570;10.428;2022-10-18T13:41:23;17.60;99.90
60033;DHT22;45905;50.570;10.428;2022-10-18T13:43:58;17.60;99.90
60033;DHT22;45905;50.570;10.428;2022-10-18T13:49:04;17.60;99.90
60033;DHT22;45905;50.570;10.428;2022-10-18T13:58:43;17.60;99.90
60033;DHT22;45905;50.570;10.428;2022-10-18T14:03:02;17.60;99.90
60033;DHT22;45905;50.570;10.428;2022-10-18T14:05:37;17.70;99.90
60033;DHT22;45905;50.570;10.428;2022-10-18T14:08:16;17.80;99.90
60033;DHT22;45905;50.570;10.428;2022-10-18T14:13:58;17.80;99.90
60033;DHT22;45905;50.570;10.428;2022-10-18T14:16:47;17.80;99.90
60033;DHT22;45905;50.570;10.428;2022-10-18T14:22:05;17.80;99.90
60033;DHT22;45905;50.570;10.428;2022-10-18T14:24:39;17.80;99.90
60033;DHT22;45905;50.570;10.428;2022-10-18T14:32:49;17.70;99.90
60033;DHT22;45905;50.570;10.428;2022-10-18T14:35:22;17.70;99.90
60033;DHT22;45905;50.570;10.428;2022-10-18T14:37:59;17.70;99.90
60033;DHT22;45905;50.570;10.428;2022-10-18T14:40:37;17.60;99.90
60033;DHT22;45905;50.570;10.428;2022-10-18T14:43:12;17.60;99.90
60033;DHT22;45905;50.570;10.428;2022-10-18T14:45:41;17.60;99.90
60033;DHT22;45905;50.570;10.428;2022-10-18T14:48:20;17.60;99.90
60033;DHT22;45905;50.570;10.428;2022-10-18T14:50:56;17.60;99.90
60033;DHT22;45905;50.570;10.428;2022-10-18T14:53:37;17.60;99.90
60033;DHT22;45905;50.570;10.428;2022-10-18T14:56:05;17.60;99.90
60033;DHT22;45905;50.570;10.428;2022-10-18T14:58:36;17.50;99.90
60033;DHT22;45905;50.570;10.428;2022-10-18T15:01:18;17.50;99.90
60033;DHT22;45905;50.570;10.428;2022-10-18T15:03:47;17.40;99.90
60033;DHT22;45905;50.570;10.428;2022-10-18T15:06:19;17.40;99.90
60033;DHT22;45905;50.570;10.428;2022-10-18T15:08:50;17.40;99.90
60033;DHT22;45905;50.570;10.428;2022-10-18T15:11:20;17.30;99.90
60033;DHT22;45905;50.570;10.428;2022-10-18T15:13:56;17.30;99.90
60033;DHT22;45905;50.570;10.428;2022-10-18T15:16:29;17.30;99.90
60033;DHT22;45905;50.570;10.428;2022-10-18T15:21:29;17.20;99.90
60033;DHT22;45905;50.570;10.428;2022-10-18T15:24:34;17.20;99.90
60033;DHT22;45905;50.570;10.428;2022-10-18T15:27:27;17.20;99.90
60033;DHT22;45905;50.570;10.428;2022-10-18T15:29:57;17.20;99.90
60033;DHT22;45905;50.570;10.428;2022-10-18T15:32:35;17.20;99.90
60033;DHT22;45905;50.570;10.428;2022-10-18T15:35:14;17.10;99.90
60033;DHT22;45905;50.570;10.428;2022-10-18T15:37:52;17.10;99.90
60033;DHT22;45905;50.570;10.428;2022-10-18T15:42:50;17.10;99.90
60033;DHT22;45905;50.570;10.428;2022-10-18T15:50:41;17.00;99.90
60033;DHT22;45905;50.570;10.428;2022-10-18T15:56:06;16.90;99.90
60033;DHT22;45905;50.570;10.428;2022-10-18T15:58:45;16.80;99.90
60033;DHT22;45905;50.570;10.428;2022-10-18T16:01:19;16.80;99.90
60033;DHT22;45905;50.570;10.428;2022-10-18T16:03:50;16.80;99.90
60033;DHT22;45905;50.570;10.428;2022-10-18T16:06:17;16.80;99.90
60033;DHT22;45905;50.570;10.428;2022-10-18T16:08:52;16.70;99.90
60033;DHT22;45905;50.570;10.428;2022-10-18T16:11:24;16.70;99.90
60033;DHT22;45905;50.570;10.428;2022-10-18T16:13:52;16.70;99.90
60033;DHT22;45905;50.570;10.428;2022-10-18T16:16:26;16.60;99.90
60033;DHT22;45905;50.570;10.428;2022-10-18T16:18:55;16.60;99.90
60033;DHT22;45905;50.570;10.428;2022-10-18T16:21:28;16.50;99.90
60033;DHT22;45905;50.570;10.428;2022-10-18T16:24:00;16.50;99.90
60033;DHT22;45905;50.570;10.428;2022-10-18T16:26:28;16.50;99.90
60033;DHT22;45905;50.570;10.428;2022-10-18T16:28:56;16.40;99.90
60033;DHT22;45905;50.570;10.428;2022-10-18T16:31:27;16.40;99.90
60033;DHT22;45905;50.570;10.428;2022-10-18T16:33:56;16.40;99.90
60033;DHT22;45905;50.570;10.428;2022-10-18T16:36:29;16.40;99.90
60033;DHT22;45905;50.570;10.428;2022-10-18T16:39:01;16.40;99.90
60033;DHT22;45905;50.570;10.428;2022-10-18T16:41:30;16.30;99.90
60033;DHT22;45905;50.570;10.428;2022-10-18T16:43:57;16.30;99.90
60033;DHT22;45905;50.570;10.428;2022-10-18T16:46:27;16.30;99.90
60033;DHT22;45905;50.570;10.428;2022-10-18T16:48:56;16.30;99.90
60033;DHT22;45905;50.570;10.428;2022-10-18T16:51:23;16.20;99.90
60033;DHT22;45905;50.570;10.428;2022-10-18T16:53:51;16.20;99.90
60033;DHT22;45905;50.570;10.428;2022-10-18T16:56:27;16.20;99.90
60033;DHT22;45905;50.570;10.428;2022-10-18T16:58:56;16.20;99.90
60033;DHT22;45905;50.570;10.428;2022-10-18T17:01:25;16.20;99.90
60033;DHT22;45905;50.570;10.428;2022-10-18T17:03:53;16.20;99.90
60033;DHT22;45905;50.570;10.428;2022-10-18T17:06:26;16.10;99.90
60033;DHT22;45905;50.570;10.428;2022-10-18T17:08:56;16.10;99.90
60033;DHT22;45905;50.570;10.428;2022-10-18T17:11:25;16.00;99.90
60033;DHT22;45905;50.570;10.428;2022-10-18T17:13:54;16.00;99.90
60033;DHT22;45905;50.570;10.428;2022-10-18T17:16:27;16.00;99.90
60033;DHT22;45905;50.570;10.428;2022-10-18T17:18:57;15.90;99.90
60033;DHT22;45905;50.570;10.428;2022-10-18T17:21:27;15.90;99.90
60033;DHT22;45905;50.570;10.428;2022-10-18T17:23:55;15.80;99.90
60033;DHT22;45905;50.570;10.428;2022-10-18T17:26:26;15.70;99.90
60033;DHT22;45905;50.570;10.428;2022-10-18T17:29:02;15.80;99.90
60033;DHT22;45905;50.570;10.428;2022-10-18T17:31:31;15.70;99.90
60033;DHT22;45905;50.570;10.428;2022-10-18T17:33:59;15.70;99.90
60033;DHT22;45905;50.570;10.428;2022-10-18T17:36:29;15.60;99.90
60033;DHT22;45905;50.570;10.428;2022-10-18T17:38:57;15.60;99.90
60033;DHT22;45905;50.570;10.428;2022-10-18T17:41:24;15.50;99.90
60033;DHT22;45905;50.570;10.428;2022-10-18T17:43:51;15.50;99.90
60033;DHT22;45905;50.570;10.428;2022-10-18T17:46:19;15.40;99.90
60033;DHT22;45905;50.570;10.428;2022-10-18T17:48:46;15.40;99.90
60033;DHT22;45905;50.570;10.428;2022-10-18T17:51:15;15.20;99.90
60033;DHT22;45905;50.570;10.428;2022-10-18T17:53:43;15.30;99.90
60033;DHT22;45905;50.570;10.428;2022-10-18T17:56:12;15.20;99.90
60033;DHT22;45905;50.570;10.428;2022-10-18T17:58:40;15.20;99.90
60033;DHT22;45905;50.570;10.428;2022-10-18T18:01:14;15.10;99.90
60033;DHT22;45905;50.570;10.428;2022-10-18T18:03:43;15.10;99.90
60033;DHT22;45905;50.570;10.428;2022-10-18T18:08:44;15.00;99.90
60033;DHT22;45905;50.570;10.428;2022-10-18T18:11:12;15.00;99.90
60033;DHT22;45905;50.570;10.428;2022-10-18T18:13:40;15.00;99.90
60033;DHT22;45905;50.570;10.428;2022-10-18T18:18:44;14.90;99.90
60033;DHT22;45905;50.570;10.428;2022-10-18T18:21:12;14.90;99.90
60033;DHT22;45905;50.570;10.428;2022-10-18T18:23:39;14.80;99.90
60033;DHT22;45905;50.570;10.428;2022-10-18T18:26:07;14.70;99.90
60033;DHT22;45905;50.570;10.428;2022-10-18T18:28:34;14.70;99.90
60033;DHT22;45905;50.570;10.428;2022-10-18T18:33:40;14.60;99.90
60033;DHT22;45905;50.570;10.428;2022-10-18T18:36:08;14.60;99.90
60033;DHT22;45905;50.570;10.428;2022-10-18T18:38:38;14.60;99.90
60033;DHT22;45905;50.570;10.428;2022-10-18T18:41:17;14.60;99.90